createdAt,value
2018-05-14T00:02:23.231Z,80.50
2018-05-14T00:04:52.005Z,80.90
2018-05-14T00:07:20.362Z,81.23
2018-05-14T00:09:50.844Z,135.20
2018-05-14T00:12:19.800Z,80.10
2018-05-14T00:14:50.860Z,80.27
2018-05-14T00:17:19.152Z,81.07
2018-05-14T00:19:47.583Z,79.00
2018-05-14T00:22:15.980Z,75.17
2018-05-14T00:24:44.500Z,73.00
2018-05-14T00:27:13.284Z,79.07
2018-05-14T00:29:42.435Z,70.50
2018-05-14T00:32:11.482Z,72.10
2018-05-14T00:34:40.709Z,73.97
2018-05-14T00:37:09.069Z,73.77
2018-05-14T00:39:37.445Z,71.90
2018-05-14T00:42:05.900Z,71.70
2018-05-14T00:44:34.858Z,72.20
2018-05-14T00:47:02.986Z,75.07
2018-05-14T00:49:33.713Z,71.70
2018-05-14T00:52:02.003Z,73.23
2018-05-14T00:54:31.076Z,77.07
2018-05-14T00:56:59.428Z,74.67
2018-05-14T00:59:27.547Z,72.03
2018-05-14T01:01:55.788Z,73.43
2018-05-14T01:04:24.108Z,72.47
2018-05-14T01:06:52.979Z,75.10
2018-05-14T01:09:22.679Z,71.07
2018-05-14T01:11:50.984Z,73.77
2018-05-14T01:14:19.304Z,73.40
2018-05-14T01:16:48.276Z,74.43
2018-05-14T01:19:17.135Z,72.00
2018-05-14T01:21:45.996Z,74.03
2018-05-14T01:24:15.092Z,74.30
2018-05-14T01:26:43.447Z,71.90
2018-05-14T01:29:14.387Z,72.07
2018-05-14T01:31:43.359Z,74.60
2018-05-14T01:34:13.193Z,75.57
2018-05-14T01:36:42.004Z,73.03
2018-05-14T01:39:11.022Z,73.73
2018-05-14T01:41:39.912Z,73.10
2018-05-14T01:44:08.020Z,72.07
2018-05-14T01:46:37.870Z,71.53
2018-05-14T01:49:06.151Z,76.00
2018-05-14T01:51:34.529Z,75.90
2018-05-14T01:54:03.052Z,75.80
2018-05-14T01:56:31.320Z,76.97
2018-05-14T01:59:00.216Z,73.77
2018-05-14T02:01:29.123Z,76.40
2018-05-14T02:03:57.912Z,71.20
2018-05-14T02:06:26.772Z,73.20
2018-05-14T02:08:55.053Z,72.03
2018-05-14T02:11:23.831Z,75.00
2018-05-14T02:13:52.733Z,72.30
2018-05-14T02:16:21.703Z,73.57
2018-05-14T02:18:50.691Z,74.27
2018-05-14T02:21:19.491Z,74.67
2018-05-14T02:23:48.385Z,75.33
2018-05-14T02:26:16.720Z,76.73
2018-05-14T02:28:45.566Z,74.43
2018-05-14T02:31:15.084Z,74.57
2018-05-14T02:33:43.939Z,74.27
2018-05-14T02:36:12.435Z,75.07
2018-05-14T02:38:40.599Z,77.57
2018-05-14T02:41:09.411Z,74.43
2018-05-14T02:43:38.180Z,78.43
2018-05-14T02:46:06.982Z,73.13
2018-05-14T02:48:36.222Z,76.23
2018-05-14T02:51:05.277Z,74.00
2018-05-14T02:53:34.156Z,77.10
2018-05-14T02:56:03.040Z,75.67
2018-05-14T02:58:32.163Z,79.17
2018-05-14T03:01:01.019Z,73.73
2018-05-14T03:03:29.760Z,76.33
2018-05-14T03:05:58.669Z,74.97
2018-05-14T03:08:27.105Z,73.37
2018-05-14T03:10:55.492Z,76.20
2018-05-14T03:13:24.368Z,78.53
2018-05-14T03:15:52.515Z,76.13
2018-05-14T03:18:21.323Z,76.10
2018-05-14T03:20:50.205Z,71.70
2018-05-14T03:23:20.128Z,75.80
2018-05-14T03:25:48.484Z,78.10
2018-05-14T03:28:17.326Z,71.53
2018-05-14T03:30:46.200Z,73.30
2018-05-14T03:33:15.212Z,74.23
2018-05-14T03:35:44.067Z,72.80
2018-05-14T03:38:13.895Z,72.27
2018-05-14T03:40:42.782Z,73.80
2018-05-14T03:43:11.161Z,76.33
2018-05-14T03:45:39.424Z,72.80
2018-05-14T03:48:07.832Z,73.27
2018-05-14T03:50:36.608Z,71.90
2018-05-14T03:53:04.699Z,72.20
2018-05-14T03:55:33.457Z,67.87
2018-05-14T03:58:01.738Z,65.93
2018-05-14T04:00:48.408Z,68.10
2018-05-14T04:03:35.112Z,63.43
2018-05-14T04:06:22.156Z,64.57
2018-05-14T04:08:50.622Z,65.93
2018-05-14T04:11:20.468Z,63.33
2018-05-14T04:13:49.542Z,61.63
2018-05-14T04:16:17.760Z,61.77
2018-05-14T04:18:47.000Z,62.60
2018-05-14T04:21:15.844Z,61.83
2018-05-14T04:23:44.627Z,64.10
2018-05-14T04:26:15.175Z,60.37
2018-05-14T04:28:43.480Z,63.47
2018-05-14T04:31:12.133Z,61.47
2018-05-14T04:33:40.485Z,62.40
2018-05-14T04:36:15.131Z,60.90
2018-05-14T04:38:49.211Z,60.33
2018-05-14T04:41:18.539Z,62.57
2018-05-14T04:43:46.776Z,62.23
2018-05-14T04:46:15.700Z,60.67
2018-05-14T04:48:44.484Z,60.20
2018-05-14T04:51:13.376Z,64.57
2018-05-14T04:53:41.577Z,62.57
2018-05-14T04:56:10.358Z,62.57
2018-05-14T04:58:38.687Z,62.90
2018-05-14T05:01:08.101Z,61.73
2018-05-14T05:03:38.435Z,64.17
2018-05-14T05:06:06.767Z,60.80
2018-05-14T05:08:36.032Z,65.07
2018-05-14T05:11:04.393Z,62.73
2018-05-14T05:13:32.691Z,65.20
2018-05-14T05:16:01.434Z,64.47
2018-05-14T05:18:29.769Z,63.40
2018-05-14T05:20:58.289Z,65.53
2018-05-14T05:23:27.139Z,67.20
2018-05-14T05:25:55.952Z,68.50
2018-05-14T05:28:24.842Z,65.40
2018-05-14T05:30:53.790Z,67.47
2018-05-14T05:33:21.950Z,71.37
2018-05-14T05:35:50.832Z,66.57
2018-05-14T05:38:19.274Z,71.90
2018-05-14T05:40:48.136Z,66.47
2018-05-14T05:43:17.143Z,68.20
2018-05-14T05:45:46.501Z,73.90
2018-05-14T05:48:23.052Z,70.60
2018-05-14T05:50:53.050Z,70.50
2018-05-14T05:53:21.449Z,69.47
2018-05-14T05:58:41.259Z,72.37
2018-05-14T06:01:09.495Z,70.77
2018-05-14T06:03:39.024Z,73.90
2018-05-14T06:08:48.708Z,73.50
2018-05-14T06:11:21.647Z,75.20
2018-05-14T06:16:32.281Z,73.00
2018-05-14T06:19:01.216Z,74.30
2018-05-14T06:21:31.346Z,73.40
2018-05-14T06:24:00.419Z,75.40
2018-05-14T06:26:39.968Z,72.43
2018-05-14T06:29:09.672Z,75.67
2018-05-14T06:31:39.255Z,75.20
2018-05-14T06:34:07.688Z,78.60
2018-05-14T06:36:36.787Z,74.17
2018-05-14T06:39:07.874Z,81.27
2018-05-14T06:41:38.144Z,80.50
2018-05-14T06:44:07.075Z,81.57
2018-05-14T06:46:37.533Z,78.83
2018-05-14T06:49:06.534Z,79.10
2018-05-14T06:51:36.219Z,84.13
2018-05-14T06:54:04.497Z,82.10
2018-05-14T06:56:32.652Z,79.87
2018-05-14T06:59:01.541Z,75.50
2018-05-14T07:01:29.632Z,78.23
2018-05-14T07:03:58.529Z,79.73
2018-05-14T07:06:26.975Z,76.03
2018-05-14T07:08:55.044Z,85.07
2018-05-14T07:11:24.017Z,86.57
2018-05-14T07:13:52.761Z,84.83
2018-05-14T07:16:21.068Z,85.50
2018-05-14T07:18:49.291Z,77.60
2018-05-14T07:21:18.110Z,74.23
2018-05-14T07:23:47.127Z,72.57
2018-05-14T07:26:16.011Z,68.50
2018-05-14T07:28:44.772Z,72.20
2018-05-14T07:31:13.541Z,71.10
2018-05-14T07:33:43.057Z,71.00
2018-05-14T07:36:12.232Z,72.13
2018-05-14T07:38:41.056Z,70.13
2018-05-14T07:41:09.361Z,72.10
2018-05-14T07:43:38.275Z,73.23
2018-05-14T07:46:08.050Z,71.93
2018-05-14T07:48:36.191Z,68.80
2018-05-14T07:51:05.100Z,68.33
2018-05-14T07:53:34.282Z,68.40
2018-05-14T07:56:02.562Z,68.73
2018-05-14T07:58:30.876Z,65.87
2018-05-14T08:00:59.722Z,65.70
2018-05-14T08:03:28.243Z,67.20
2018-05-14T08:05:57.224Z,65.07
2018-05-14T08:08:26.980Z,66.07
2018-05-14T08:10:55.237Z,62.80
2018-05-14T08:13:23.801Z,63.70
2018-05-14T08:15:51.917Z,66.07
2018-05-14T08:18:20.953Z,63.13
2018-05-14T08:20:49.106Z,65.80
2018-05-14T08:23:18.639Z,63.13
2018-05-14T08:25:46.723Z,60.23
2018-05-14T08:28:15.583Z,62.10
2018-05-14T08:30:43.715Z,60.40
2018-05-14T08:33:15.363Z,57.57
2018-05-14T08:35:45.809Z,63.20
2018-05-14T08:38:13.916Z,64.07
2018-05-14T08:40:42.034Z,64.03
2018-05-14T08:43:11.641Z,64.20
2018-05-14T08:45:40.379Z,62.30
2018-05-14T08:48:09.134Z,67.57
2018-05-14T08:50:38.148Z,61.77
2018-05-14T08:53:07.125Z,69.83
2018-05-14T08:55:36.002Z,63.40
2018-05-14T08:58:04.138Z,63.50
2018-05-14T09:00:32.303Z,64.17
2018-05-14T09:03:00.394Z,65.03
2018-05-14T09:05:28.722Z,64.13
2018-05-14T09:07:57.572Z,66.17
2018-05-14T09:10:25.671Z,62.33
2018-05-14T09:12:54.516Z,62.43
2018-05-14T09:15:22.872Z,61.67
2018-05-14T09:17:51.658Z,59.47
2018-05-14T09:20:19.860Z,61.13
2018-05-14T09:22:49.260Z,61.27
2018-05-14T09:25:17.580Z,59.93
2018-05-14T09:27:46.752Z,60.03
2018-05-14T09:30:16.146Z,59.57
2018-05-14T09:32:44.654Z,56.03
2018-05-14T09:35:13.561Z,56.37
2018-05-14T09:37:43.087Z,57.17
2018-05-14T09:40:11.192Z,56.27
2018-05-14T09:42:39.506Z,56.67
2018-05-14T09:45:09.381Z,59.23
2018-05-14T09:47:38.264Z,56.60
2018-05-14T09:50:07.068Z,56.40
2018-05-14T09:52:35.707Z,55.40
2018-05-14T09:55:04.516Z,57.57
2018-05-14T09:57:33.260Z,57.30
2018-05-14T10:00:03.039Z,55.90
2018-05-14T10:02:31.117Z,55.00
2018-05-14T10:05:00.819Z,58.07
2018-05-14T10:07:29.984Z,56.57
2018-05-14T10:09:58.319Z,57.47
2018-05-14T10:12:26.416Z,59.93
2018-05-14T10:14:56.072Z,56.57
2018-05-14T10:17:24.331Z,52.50
2018-05-14T10:19:52.677Z,54.03
2018-05-14T10:22:20.953Z,52.50
2018-05-14T10:24:51.177Z,49.87
2018-05-14T10:27:20.114Z,49.43
2018-05-14T10:29:48.462Z,52.47
2018-05-14T10:32:17.272Z,50.63
2018-05-14T10:34:46.357Z,52.30
2018-05-14T10:37:15.608Z,53.30
2018-05-14T10:39:43.715Z,53.20
2018-05-14T10:42:13.647Z,51.90
2018-05-14T10:44:42.760Z,51.50
2018-05-14T10:47:10.866Z,52.67
2018-05-14T10:49:39.202Z,50.57
2018-05-14T10:52:08.571Z,47.87
2018-05-14T10:54:39.141Z,47.80
2018-05-14T10:57:07.749Z,47.17
2018-05-14T10:59:35.899Z,49.40
2018-05-14T11:02:03.989Z,45.13
2018-05-14T11:04:32.255Z,47.00
2018-05-14T11:07:00.419Z,43.40
2018-05-14T11:09:31.873Z,42.67
2018-05-14T11:12:00.812Z,44.80
2018-05-14T11:14:29.604Z,42.00
2018-05-14T11:16:58.928Z,43.50
2018-05-14T11:19:27.148Z,43.57
2018-05-14T11:21:55.244Z,41.93
2018-05-14T11:24:24.089Z,40.93
2018-05-14T11:26:52.196Z,38.07
2018-05-14T11:29:20.301Z,39.90
2018-05-14T11:31:49.423Z,39.67
2018-05-14T11:34:17.966Z,39.40
2018-05-14T11:36:46.803Z,39.47
2018-05-14T11:39:14.967Z,35.13
2018-05-14T11:41:44.044Z,35.20
2018-05-14T11:44:13.727Z,35.60
2018-05-14T11:46:42.037Z,36.87
2018-05-14T11:49:10.192Z,36.30
2018-05-14T11:51:42.605Z,33.97
2018-05-14T11:54:10.739Z,31.10
2018-05-14T11:56:39.072Z,31.90
2018-05-14T11:59:07.177Z,28.30
2018-05-14T12:01:35.294Z,29.83
2018-05-14T12:04:03.486Z,30.33
2018-05-14T12:06:31.579Z,28.07
2018-05-14T12:08:59.662Z,27.67
2018-05-14T12:11:27.871Z,27.80
2018-05-14T12:13:56.172Z,25.77
2018-05-14T12:16:24.489Z,32.27
2018-05-14T12:18:52.839Z,30.10
2018-05-14T12:21:20.930Z,27.50
2018-05-14T12:23:49.251Z,27.40
2018-05-14T12:26:17.424Z,19.77
2018-05-14T12:28:45.655Z,19.60
2018-05-14T12:31:13.952Z,20.90
2018-05-14T12:33:43.208Z,19.30
2018-05-14T12:36:11.537Z,19.73
2018-05-14T12:38:40.598Z,21.97
2018-05-14T12:41:08.736Z,22.20
2018-05-14T12:43:36.855Z,19.17
2018-05-14T12:46:05.048Z,16.83
2018-05-14T12:48:33.111Z,15.17
2018-05-14T12:51:01.321Z,14.20
2018-05-14T12:53:29.432Z,15.20
2018-05-14T12:55:57.620Z,14.27
2018-05-14T12:58:25.788Z,13.17
2018-05-14T13:00:53.932Z,12.20
2018-05-14T13:03:22.036Z,12.00
2018-05-14T13:05:50.323Z,15.03
2018-05-14T13:08:18.715Z,13.00
2018-05-14T13:10:47.424Z,12.33
2018-05-14T13:13:15.580Z,12.27
2018-05-14T13:15:43.720Z,10.73
2018-05-14T13:18:11.806Z,10.30
2018-05-14T13:20:40.132Z,11.00
2018-05-14T13:23:08.452Z,11.03
2018-05-14T13:25:36.545Z,9.63
2018-05-14T13:28:05.404Z,11.10
2018-05-14T13:30:33.491Z,9.50
2018-05-14T13:33:01.560Z,9.30
2018-05-14T13:35:29.684Z,8.77
2018-05-14T13:37:58.055Z,9.90
2018-05-14T13:40:26.032Z,10.30
2018-05-14T13:42:55.110Z,17.90
2018-05-14T13:45:23.649Z,8.00
2018-05-14T13:47:52.612Z,7.47
2018-05-14T13:50:20.923Z,7.60
2018-05-14T13:52:49.616Z,8.30
2018-05-14T13:55:18.485Z,7.67
2018-05-14T13:57:47.413Z,6.73
2018-05-14T14:00:16.612Z,7.43
2018-05-14T14:02:47.565Z,8.67
2018-05-14T14:05:18.931Z,7.97
2018-05-14T14:07:50.186Z,7.43
2018-05-14T14:10:20.101Z,7.20
2018-05-14T14:12:48.915Z,7.20
2018-05-14T14:15:17.287Z,6.93
2018-05-14T14:17:47.388Z,6.53
2018-05-14T14:20:18.959Z,5.80
2018-05-14T14:22:47.295Z,6.00
2018-05-14T14:25:15.398Z,6.27
2018-05-14T14:27:43.592Z,6.87
2018-05-14T14:30:12.302Z,6.20
2018-05-14T14:32:40.843Z,6.97
2018-05-14T14:35:09.643Z,5.37
2018-05-14T14:37:38.420Z,5.30
2018-05-14T14:40:06.512Z,5.20
2018-05-14T14:42:35.141Z,5.00
2018-05-14T14:45:03.823Z,5.20
2018-05-14T14:47:32.100Z,5.30
2018-05-14T14:50:00.236Z,4.97
2018-05-14T14:52:29.531Z,4.73
2018-05-14T14:54:58.495Z,4.73
2018-05-14T14:57:26.772Z,5.10
2018-05-14T14:59:55.083Z,5.00
2018-05-14T15:02:23.147Z,4.90
2018-05-14T15:04:52.231Z,4.20
2018-05-14T15:07:21.271Z,5.40
2018-05-14T15:09:49.553Z,4.93
2018-05-14T15:12:18.563Z,3.97
2018-05-14T15:14:48.508Z,4.30
2018-05-14T15:17:16.879Z,4.50
2018-05-14T15:19:45.172Z,4.77
2018-05-14T15:22:14.165Z,4.90
2018-05-14T15:24:42.960Z,4.27
2018-05-14T15:27:11.344Z,4.37
2018-05-14T15:29:39.667Z,4.27
2018-05-14T15:32:09.654Z,4.30
2018-05-14T15:34:48.458Z,4.27
2018-05-14T15:37:16.934Z,3.80
2018-05-14T15:39:45.082Z,4.43
2018-05-14T15:42:14.294Z,4.40
2018-05-14T15:44:42.524Z,4.17
2018-05-14T15:47:10.650Z,3.93
2018-05-14T15:49:38.989Z,3.60
2018-05-14T15:52:08.251Z,4.30
2018-05-14T15:54:36.408Z,4.50
2018-05-14T15:57:05.356Z,4.43
2018-05-14T15:59:34.520Z,4.93
2018-05-14T16:02:03.596Z,4.63
2018-05-14T16:04:31.984Z,4.77
2018-05-14T16:07:00.207Z,4.10
2018-05-14T16:09:29.961Z,4.03
2018-05-14T16:11:58.279Z,3.80
2018-05-14T16:14:27.400Z,4.43
2018-05-14T16:16:55.516Z,4.13
2018-05-14T16:19:23.600Z,4.30
2018-05-14T16:21:51.916Z,4.10
2018-05-14T16:24:20.968Z,3.90
2018-05-14T16:26:49.255Z,4.83
2018-05-14T16:29:17.444Z,4.50
2018-05-14T16:31:46.327Z,4.03
2018-05-14T16:34:15.005Z,4.27
2018-05-14T16:36:43.116Z,3.90
2018-05-14T16:39:12.252Z,4.10
2018-05-14T16:41:42.120Z,4.13
2018-05-14T16:44:10.961Z,4.50
2018-05-14T16:46:39.064Z,4.97
2018-05-14T16:49:07.373Z,4.07
2018-05-14T16:51:36.227Z,4.30
2018-05-14T16:54:04.439Z,4.93
2018-05-14T16:56:33.157Z,4.93
2018-05-14T16:59:01.277Z,4.37
2018-05-14T17:01:31.040Z,3.73
2018-05-14T17:03:59.499Z,3.80
2018-05-14T17:06:27.792Z,4.37
2018-05-14T17:08:55.911Z,3.93
2018-05-14T17:11:24.853Z,9.33
2018-05-14T17:13:53.365Z,8.00
2018-05-14T17:16:22.467Z,4.50
2018-05-14T17:18:51.780Z,5.90
2018-05-14T17:21:20.665Z,5.67
2018-05-14T17:23:48.854Z,4.17
2018-05-14T17:26:17.008Z,4.70
2018-05-14T17:28:49.565Z,4.90
2018-05-14T17:31:18.931Z,4.50
2018-05-14T17:33:48.411Z,7.00
2018-05-14T17:36:17.513Z,16.07
2018-05-14T17:38:46.493Z,10.33
2018-05-14T17:41:14.620Z,9.80
2018-05-14T17:43:44.734Z,8.00
2018-05-14T17:46:13.836Z,8.37
2018-05-14T17:48:42.215Z,4.70
2018-05-14T17:51:12.128Z,5.70
2018-05-14T17:53:40.245Z,4.30
2018-05-14T17:56:08.520Z,4.10
2018-05-14T17:58:38.013Z,9.50
2018-05-14T18:01:06.380Z,6.87
2018-05-14T18:03:35.245Z,4.47
2018-05-14T18:06:03.606Z,7.87
2018-05-14T18:08:31.735Z,7.07
2018-05-14T18:11:00.001Z,13.47
2018-05-14T18:13:29.264Z,61.23
2018-05-14T18:15:58.611Z,36.37
2018-05-14T18:18:30.523Z,20.03
2018-05-14T18:21:00.411Z,40.13
2018-05-14T18:23:28.864Z,24.47
2018-05-14T18:29:08.854Z,95.23
2018-05-14T18:31:45.586Z,18.90
2018-05-14T18:34:16.894Z,7.90
2018-05-14T18:36:46.210Z,19.33
2018-05-14T18:39:16.495Z,12.87
2018-05-14T18:41:44.914Z,19.00
2018-05-14T18:44:14.139Z,11.00
2018-05-14T18:46:42.251Z,5.03
2018-05-14T18:49:10.359Z,5.10
2018-05-14T18:51:39.275Z,6.30
2018-05-14T18:54:07.457Z,10.20
2018-05-14T18:56:35.926Z,7.80
2018-05-14T18:59:06.106Z,6.33
2018-05-14T19:01:34.525Z,5.20
2018-05-14T19:04:03.224Z,4.53
2018-05-14T19:06:31.631Z,4.53
2018-05-14T19:09:01.916Z,9.10
2018-05-14T19:11:36.551Z,24.17
2018-05-14T19:14:04.708Z,11.50
2018-05-14T19:16:40.401Z,5.50
2018-05-14T19:19:09.542Z,5.20
2018-05-14T19:21:37.736Z,8.40
2018-05-14T19:24:06.659Z,12.20
2018-05-14T19:26:36.023Z,7.33
2018-05-14T19:29:11.249Z,10.63
2018-05-14T19:31:41.612Z,7.47
2018-05-14T19:34:17.048Z,5.57
2018-05-14T19:36:45.184Z,15.27
2018-05-14T19:42:19.976Z,13.77
2018-05-14T19:44:48.326Z,32.80
2018-05-14T19:47:17.792Z,18.17
2018-05-14T19:49:46.692Z,6.70
2018-05-14T19:52:17.017Z,6.43
2018-05-14T19:54:46.868Z,5.93
2018-05-14T19:57:15.766Z,5.50
2018-05-14T19:59:44.836Z,5.30
2018-05-14T20:02:15.004Z,4.63
2018-05-14T20:04:43.776Z,5.30
2018-05-14T20:07:12.777Z,5.63
2018-05-14T20:09:42.065Z,15.00
2018-05-14T20:12:10.930Z,13.60
2018-05-14T20:14:39.232Z,9.17
2018-05-14T20:17:08.031Z,17.43
2018-05-14T20:19:37.128Z,16.77
2018-05-14T20:22:06.307Z,15.83
2018-05-14T20:24:34.622Z,7.17
2018-05-14T20:27:03.611Z,5.50
2018-05-14T20:29:31.715Z,6.40
2018-05-14T20:31:59.808Z,13.90
2018-05-14T20:34:29.986Z,18.53
2018-05-14T20:36:58.131Z,7.57
2018-05-14T20:39:27.787Z,5.93
2018-05-14T20:41:56.340Z,5.70
2018-05-14T20:44:24.601Z,5.67
2018-05-14T20:46:52.920Z,6.10
2018-05-14T20:49:21.040Z,4.90
2018-05-14T20:51:49.321Z,5.33
2018-05-14T20:54:17.419Z,10.47
2018-05-14T20:56:46.092Z,9.70
2018-05-14T20:59:14.397Z,16.73
2018-05-14T21:01:43.113Z,6.37
2018-05-14T21:04:11.260Z,6.27
2018-05-14T21:06:39.346Z,6.30
2018-05-14T21:09:08.461Z,7.10
2018-05-14T21:11:37.349Z,8.17
2018-05-14T21:14:06.394Z,8.90
2018-05-14T21:16:34.764Z,6.27
2018-05-14T21:19:03.748Z,6.20
2018-05-14T21:21:31.931Z,5.60
2018-05-14T21:24:00.863Z,5.97
2018-05-14T21:26:30.349Z,6.43
2018-05-14T21:28:58.700Z,5.77
2018-05-14T21:31:26.811Z,5.53
2018-05-14T21:33:56.752Z,5.40
2018-05-14T21:36:24.929Z,6.40
2018-05-14T21:38:53.032Z,5.30
2018-05-14T21:41:22.153Z,5.93
2018-05-14T21:43:50.688Z,5.03
2018-05-14T21:46:18.941Z,6.20
2018-05-14T21:48:49.473Z,5.50
2018-05-14T21:51:18.327Z,5.90
2018-05-14T21:53:47.422Z,6.33
2018-05-14T21:56:16.416Z,5.70
2018-05-14T21:58:44.688Z,6.33
2018-05-14T22:01:12.831Z,6.13
2018-05-14T22:03:41.064Z,5.90
2018-05-14T22:06:15.317Z,6.40
2018-05-14T22:08:43.581Z,6.07
2018-05-14T22:11:12.620Z,7.27
2018-05-14T22:13:44.864Z,8.40
2018-05-14T22:16:13.687Z,7.80
2018-05-14T22:18:42.480Z,6.73
2018-05-14T22:21:10.557Z,6.00
2018-05-14T22:23:39.558Z,5.90
2018-05-14T22:26:07.991Z,5.43
2018-05-14T22:28:36.064Z,5.40
2018-05-14T22:31:04.866Z,5.60
2018-05-14T22:33:34.933Z,5.60
2018-05-14T22:36:04.074Z,5.50
2018-05-14T22:38:32.160Z,5.97
2018-05-14T22:41:00.288Z,5.23
2018-05-14T22:43:29.376Z,7.37
2018-05-14T22:45:57.659Z,6.47
2018-05-14T22:48:25.754Z,5.97
2018-05-14T22:50:54.556Z,6.40
2018-05-14T22:53:22.676Z,6.20
2018-05-14T22:55:51.022Z,5.77
2018-05-14T22:58:19.692Z,6.67
2018-05-14T23:00:48.039Z,6.40
2018-05-14T23:03:16.171Z,6.40
2018-05-14T23:05:44.303Z,5.80
2018-05-14T23:08:12.399Z,6.53
2018-05-14T23:10:40.609Z,6.40
2018-05-14T23:13:08.884Z,6.40
2018-05-14T23:15:37.733Z,6.07
2018-05-14T23:18:06.087Z,6.77
2018-05-14T23:20:34.494Z,5.83
2018-05-14T23:23:06.236Z,6.00
2018-05-14T23:25:35.226Z,5.23
2018-05-14T23:28:03.297Z,5.80
2018-05-14T23:30:31.520Z,5.70
2018-05-14T23:32:59.641Z,5.87
2018-05-14T23:35:28.889Z,5.47
2018-05-14T23:37:57.065Z,5.90
2018-05-14T23:40:25.374Z,5.80
2018-05-14T23:42:53.506Z,5.43
2018-05-14T23:45:21.593Z,6.10
2018-05-14T23:47:49.939Z,5.90
2018-05-14T23:50:18.704Z,5.70
2018-05-14T23:52:51.560Z,5.90
2018-05-14T23:55:20.433Z,5.70
2018-05-14T23:57:49.200Z,4.90
